createdAt,value
2019-01-14T00:00:05.601Z,984.74
2019-01-14T00:01:05.579Z,984.90
2019-01-14T00:02:05.565Z,984.82
2019-01-14T00:03:05.587Z,984.85
2019-01-14T00:04:05.542Z,985.02
2019-01-14T00:05:06.015Z,984.98
2019-01-14T00:06:10.108Z,984.71
2019-01-14T00:07:05.509Z,984.95
2019-01-14T00:08:05.498Z,984.91
2019-01-14T00:09:05.481Z,984.85
2019-01-14T00:10:05.512Z,985.00
2019-01-14T00:11:05.462Z,985.04
2019-01-14T00:12:05.449Z,985.11
2019-01-14T00:13:05.440Z,985.02
2019-01-14T00:14:05.427Z,985.33
2019-01-14T00:15:05.438Z,985.01
2019-01-14T00:16:05.424Z,985.13
2019-01-14T00:17:05.407Z,985.24
2019-01-14T00:18:05.417Z,985.15
2019-01-14T00:19:05.384Z,985.28
2019-01-14T00:20:05.388Z,985.26
2019-01-14T00:21:05.358Z,985.36
2019-01-14T00:22:05.340Z,985.51
2019-01-14T00:23:05.323Z,985.40
2019-01-14T00:24:05.317Z,985.33
2019-01-14T00:25:05.375Z,985.36
2019-01-14T00:26:05.296Z,985.63
2019-01-14T00:27:05.287Z,985.50
2019-01-14T00:28:05.278Z,985.57
2019-01-14T00:29:05.258Z,985.51
2019-01-14T00:30:05.269Z,985.68
2019-01-14T00:31:05.243Z,985.68
2019-01-14T00:32:05.229Z,985.56
2019-01-14T00:33:05.216Z,985.59
2019-01-14T00:34:05.201Z,985.60
2019-01-14T00:35:05.247Z,985.73
2019-01-14T00:36:05.185Z,985.75
2019-01-14T00:37:05.171Z,985.69
2019-01-14T00:38:05.160Z,985.72
2019-01-14T00:39:05.147Z,985.81
2019-01-14T00:40:05.155Z,985.72
2019-01-14T00:41:05.128Z,985.64
2019-01-14T00:42:05.114Z,985.75
2019-01-14T00:43:05.106Z,985.78
2019-01-14T00:44:05.096Z,985.72
2019-01-14T00:45:05.141Z,985.67
2019-01-14T00:46:05.069Z,985.76
2019-01-14T00:47:05.059Z,985.74
2019-01-14T00:48:05.050Z,985.77
2019-01-14T00:49:05.039Z,985.77
2019-01-14T00:50:05.031Z,985.82
2019-01-14T00:51:05.029Z,985.85
2019-01-14T00:52:05.011Z,985.94
2019-01-14T00:53:04.996Z,985.87
2019-01-14T00:54:04.980Z,985.86
2019-01-14T00:55:04.969Z,985.91
2019-01-14T00:56:04.977Z,986.01
2019-01-14T00:57:04.953Z,986.17
2019-01-14T00:58:04.935Z,986.02
2019-01-14T00:59:04.925Z,986.19
2019-01-14T01:00:04.912Z,985.99
2019-01-14T01:01:04.917Z,985.97
2019-01-14T01:02:04.886Z,986.13
2019-01-14T01:03:04.876Z,986.19
2019-01-14T01:04:04.871Z,986.22
2019-01-14T01:05:04.857Z,986.33
2019-01-14T01:06:04.861Z,986.21
2019-01-14T01:07:04.830Z,986.43
2019-01-14T01:08:04.831Z,986.35
2019-01-14T01:09:04.813Z,986.41
2019-01-14T01:10:04.801Z,986.39
2019-01-14T01:11:04.805Z,986.41
2019-01-14T01:12:04.783Z,986.35
2019-01-14T01:13:04.763Z,986.46
2019-01-14T01:14:04.760Z,986.48
2019-01-14T01:15:04.744Z,986.50
2019-01-14T01:16:04.751Z,986.79
2019-01-14T01:17:04.728Z,986.47
2019-01-14T01:18:04.709Z,986.49
2019-01-14T01:19:04.699Z,986.56
2019-01-14T01:20:04.689Z,986.58
2019-01-14T01:21:04.694Z,986.60
2019-01-14T01:22:04.665Z,986.74
2019-01-14T01:23:04.655Z,986.71
2019-01-14T01:24:04.641Z,986.73
2019-01-14T01:25:04.631Z,986.62
2019-01-14T01:26:04.650Z,986.68
2019-01-14T01:27:04.614Z,986.70
2019-01-14T01:28:04.595Z,986.69
2019-01-14T01:29:04.594Z,986.94
2019-01-14T01:30:04.573Z,986.76
2019-01-14T01:31:04.588Z,986.83
2019-01-14T01:32:04.550Z,986.76
2019-01-14T01:33:04.542Z,986.91
2019-01-14T01:34:04.532Z,986.82
2019-01-14T01:35:04.515Z,986.95
2019-01-14T01:36:04.602Z,986.84
2019-01-14T01:37:04.501Z,986.83
2019-01-14T01:38:04.496Z,986.84
2019-01-14T01:39:04.478Z,986.85
2019-01-14T01:40:04.466Z,986.97
2019-01-14T01:41:04.475Z,987.10
2019-01-14T01:42:04.443Z,986.98
2019-01-14T01:43:04.431Z,986.95
2019-01-14T01:44:04.429Z,987.06
2019-01-14T01:45:04.409Z,987.10
2019-01-14T01:46:04.413Z,987.10
2019-01-14T01:47:04.387Z,987.15
2019-01-14T01:48:04.373Z,987.22
2019-01-14T01:49:04.363Z,987.05
2019-01-14T01:50:04.348Z,987.23
2019-01-14T01:51:04.365Z,987.30
2019-01-14T01:52:04.330Z,987.28
2019-01-14T01:53:04.315Z,987.37
2019-01-14T01:54:04.309Z,987.55
2019-01-14T01:55:04.292Z,987.61
2019-01-14T01:56:04.286Z,987.70
2019-01-14T01:57:04.291Z,987.62
2019-01-14T01:58:04.262Z,987.54
2019-01-14T01:59:04.251Z,987.70
2019-01-14T02:00:04.241Z,987.72
2019-01-14T02:01:04.231Z,987.86
2019-01-14T02:02:04.235Z,987.78
2019-01-14T02:03:04.209Z,987.77
2019-01-14T02:04:04.193Z,987.88
2019-01-14T02:05:04.188Z,987.81
2019-01-14T02:06:04.178Z,987.93
2019-01-14T02:07:04.180Z,988.01
2019-01-14T02:08:04.148Z,987.94
2019-01-14T02:09:04.145Z,988.01
2019-01-14T02:10:04.126Z,987.92
2019-01-14T02:11:04.118Z,987.90
2019-01-14T02:12:04.125Z,987.95
2019-01-14T02:13:04.096Z,987.92
2019-01-14T02:14:04.080Z,987.98
2019-01-14T02:15:04.069Z,987.98
2019-01-14T02:16:04.076Z,988.02
2019-01-14T02:17:04.078Z,988.08
2019-01-14T02:18:04.041Z,988.01
2019-01-14T02:19:04.031Z,988.02
2019-01-14T02:20:04.014Z,988.14
2019-01-14T02:21:04.006Z,988.18
2019-01-14T02:22:04.008Z,988.22
2019-01-14T02:23:03.983Z,988.23
2019-01-14T02:24:03.968Z,988.25
2019-01-14T02:25:03.955Z,988.29
2019-01-14T02:26:03.947Z,988.49
2019-01-14T02:27:03.963Z,988.29
2019-01-14T02:28:03.922Z,988.38
2019-01-14T02:29:03.915Z,988.33
2019-01-14T02:30:03.906Z,988.36
2019-01-14T02:31:03.893Z,988.29
2019-01-14T02:32:03.903Z,988.34
2019-01-14T02:33:03.872Z,988.35
2019-01-14T02:34:03.857Z,988.38
2019-01-14T02:35:03.850Z,988.46
2019-01-14T02:36:03.834Z,988.46
2019-01-14T02:37:03.861Z,988.52
2019-01-14T02:38:03.811Z,988.48
2019-01-14T02:39:03.801Z,988.41
2019-01-14T02:40:03.789Z,988.49
2019-01-14T02:41:03.786Z,988.56
2019-01-14T02:42:03.796Z,988.54
2019-01-14T02:43:03.756Z,988.55
2019-01-14T02:44:03.749Z,988.62
2019-01-14T02:45:03.736Z,988.76
2019-01-14T02:46:03.730Z,988.58
2019-01-14T02:47:03.715Z,988.65
2019-01-14T02:48:03.718Z,988.64
2019-01-14T02:49:03.691Z,988.68
2019-01-14T02:50:03.683Z,988.70
2019-01-14T02:51:03.671Z,988.77
2019-01-14T02:52:03.660Z,988.81
2019-01-14T02:53:03.661Z,988.92
2019-01-14T02:54:03.632Z,988.91
2019-01-14T02:55:03.627Z,988.95
2019-01-14T02:56:03.611Z,988.94
2019-01-14T02:57:03.604Z,989.12
2019-01-14T02:58:03.606Z,989.05
2019-01-14T02:59:03.579Z,989.00
2019-01-14T03:00:03.572Z,989.10
2019-01-14T03:01:03.573Z,989.08
2019-01-14T03:02:03.546Z,989.22
2019-01-14T03:03:03.552Z,989.10
2019-01-14T03:04:03.523Z,989.35
2019-01-14T03:05:03.518Z,989.14
2019-01-14T03:06:03.501Z,989.18
2019-01-14T03:07:03.493Z,989.34
2019-01-14T03:08:03.501Z,989.31
2019-01-14T03:09:03.473Z,989.33
2019-01-14T03:10:03.454Z,989.36
2019-01-14T03:11:03.451Z,989.38
2019-01-14T03:12:03.432Z,989.42
2019-01-14T03:13:03.438Z,989.43
2019-01-14T03:14:03.413Z,989.54
2019-01-14T03:15:03.397Z,989.53
2019-01-14T03:16:03.389Z,989.58
2019-01-14T03:17:03.377Z,989.45
2019-01-14T03:18:03.391Z,989.60
2019-01-14T03:19:03.354Z,989.63
2019-01-14T03:20:03.341Z,989.68
2019-01-14T03:21:03.333Z,989.70
2019-01-14T03:22:03.321Z,989.72
2019-01-14T03:23:03.313Z,989.76
2019-01-14T03:24:03.314Z,989.84
2019-01-14T03:25:03.291Z,989.86
2019-01-14T03:26:03.281Z,989.86
2019-01-14T03:27:03.273Z,989.94
2019-01-14T03:28:03.262Z,989.89
2019-01-14T03:29:03.259Z,989.87
2019-01-14T03:30:03.233Z,989.99
2019-01-14T03:31:03.218Z,990.03
2019-01-14T03:32:03.211Z,990.01
2019-01-14T03:33:03.200Z,990.02
2019-01-14T03:34:03.203Z,989.91
2019-01-14T03:35:03.173Z,990.01
2019-01-14T03:36:03.171Z,990.13
2019-01-14T03:37:05.641Z,990.17
2019-01-14T03:38:03.141Z,990.20
2019-01-14T03:39:03.148Z,990.25
2019-01-14T03:40:03.120Z,990.29
2019-01-14T03:41:03.106Z,990.34
2019-01-14T03:42:03.097Z,990.27
2019-01-14T03:43:03.093Z,990.26
2019-01-14T03:44:03.098Z,990.23
2019-01-14T03:45:03.062Z,990.35
2019-01-14T03:46:03.065Z,990.36
2019-01-14T03:47:03.045Z,990.43
2019-01-14T03:48:03.039Z,990.26
2019-01-14T03:49:03.034Z,990.38
2019-01-14T03:50:03.005Z,990.45
2019-01-14T03:51:03.015Z,990.35
2019-01-14T03:52:02.989Z,990.30
2019-01-14T03:53:02.973Z,990.52
2019-01-14T03:54:02.978Z,990.47
2019-01-14T03:55:02.952Z,990.55
2019-01-14T03:56:02.935Z,990.53
2019-01-14T03:57:02.929Z,990.58
2019-01-14T03:58:02.918Z,990.60
2019-01-14T03:59:02.925Z,990.56
2019-01-14T04:00:02.915Z,990.68
2019-01-14T04:01:02.885Z,990.52
2019-01-14T04:02:02.877Z,990.61
2019-01-14T04:03:02.866Z,990.56
2019-01-14T04:04:02.849Z,990.58
2019-01-14T04:05:02.854Z,990.59
2019-01-14T04:06:02.827Z,990.67
2019-01-14T04:07:02.816Z,990.74
2019-01-14T04:08:02.805Z,990.79
2019-01-14T04:09:02.793Z,990.79
2019-01-14T04:10:02.801Z,990.69
2019-01-14T04:11:02.771Z,990.81
2019-01-14T04:12:02.760Z,990.71
2019-01-14T04:13:02.752Z,990.87
2019-01-14T04:14:02.737Z,990.79
2019-01-14T04:15:02.747Z,990.88
2019-01-14T04:16:02.717Z,990.80
2019-01-14T04:17:02.705Z,990.91
2019-01-14T04:18:02.695Z,990.96
2019-01-14T04:19:02.683Z,990.89
2019-01-14T04:20:02.686Z,990.97
2019-01-14T04:21:02.662Z,990.94
2019-01-14T04:22:02.671Z,990.96
2019-01-14T04:23:02.642Z,991.08
2019-01-14T04:24:02.630Z,991.06
2019-01-14T04:25:02.636Z,991.01
2019-01-14T04:26:02.605Z,991.10
2019-01-14T04:27:02.591Z,991.00
2019-01-14T04:28:02.583Z,991.12
2019-01-14T04:29:02.568Z,991.15
2019-01-14T04:30:02.572Z,991.08
2019-01-14T04:31:02.545Z,991.15
2019-01-14T04:32:02.537Z,991.17
2019-01-14T04:33:02.528Z,991.17
2019-01-14T04:34:02.520Z,991.19
2019-01-14T04:35:02.515Z,991.19
2019-01-14T04:36:02.495Z,991.24
2019-01-14T04:37:02.479Z,991.24
2019-01-14T04:38:02.467Z,991.21
2019-01-14T04:39:02.473Z,991.26
2019-01-14T04:40:02.487Z,991.41
2019-01-14T04:41:02.434Z,991.31
2019-01-14T04:42:02.420Z,991.39
2019-01-14T04:43:02.415Z,991.45
2019-01-14T04:44:02.401Z,991.37
2019-01-14T04:45:02.434Z,991.31
2019-01-14T04:46:02.393Z,991.35
2019-01-14T04:47:02.363Z,991.43
2019-01-14T04:48:02.361Z,991.50
2019-01-14T04:49:02.343Z,991.63
2019-01-14T04:50:02.340Z,991.49
2019-01-14T04:51:02.343Z,991.60
2019-01-14T04:52:02.313Z,991.64
2019-01-14T04:53:02.306Z,991.64
2019-01-14T04:54:02.292Z,991.61
2019-01-14T04:55:02.288Z,991.68
2019-01-14T04:56:02.285Z,991.72
2019-01-14T04:57:02.265Z,991.83
2019-01-14T04:58:02.244Z,991.87
2019-01-14T04:59:02.232Z,991.87
2019-01-14T05:00:02.227Z,991.80
2019-01-14T05:01:02.225Z,991.81
2019-01-14T05:02:02.215Z,991.93
2019-01-14T05:03:02.191Z,992.02
2019-01-14T05:04:02.175Z,991.86
2019-01-14T05:05:02.167Z,991.97
2019-01-14T05:06:02.172Z,992.02
2019-01-14T05:07:02.147Z,991.97
2019-01-14T05:08:02.137Z,991.95
2019-01-14T05:09:02.121Z,991.93
2019-01-14T05:10:02.116Z,992.05
2019-01-14T05:11:02.113Z,992.04
2019-01-14T05:12:02.087Z,992.08
2019-01-14T05:13:02.076Z,992.12
2019-01-14T05:14:02.067Z,992.20
2019-01-14T05:15:02.055Z,992.04
2019-01-14T05:16:02.058Z,992.10
2019-01-14T05:17:02.033Z,992.11
2019-01-14T05:18:02.020Z,992.19
2019-01-14T05:19:02.011Z,992.18
2019-01-14T05:20:02.000Z,992.27
2019-01-14T05:21:02.000Z,992.08
2019-01-14T05:22:01.977Z,992.17
2019-01-14T05:23:01.969Z,992.23
2019-01-14T05:24:01.960Z,992.21
2019-01-14T05:25:01.946Z,992.20
2019-01-14T05:26:01.951Z,992.17
2019-01-14T05:27:01.920Z,992.25
2019-01-14T05:28:01.915Z,992.29
2019-01-14T05:29:01.900Z,992.23
2019-01-14T05:30:01.894Z,992.38
2019-01-14T05:31:01.895Z,992.31
2019-01-14T05:32:01.882Z,992.23
2019-01-14T05:33:01.853Z,992.23
2019-01-14T05:34:01.843Z,992.33
2019-01-14T05:35:01.838Z,992.31
2019-01-14T05:36:01.828Z,992.28
2019-01-14T05:37:01.821Z,992.33
2019-01-14T05:38:01.807Z,992.33
2019-01-14T05:39:01.787Z,992.32
2019-01-14T05:40:01.773Z,992.22
2019-01-14T05:41:01.767Z,992.30
2019-01-14T05:42:01.835Z,992.37
2019-01-14T05:43:01.743Z,992.39
2019-01-14T05:44:01.739Z,992.44
2019-01-14T05:45:01.766Z,992.38
2019-01-14T05:46:01.711Z,992.38
2019-01-14T05:47:01.717Z,992.40
2019-01-14T05:48:01.683Z,992.30
2019-01-14T05:49:01.675Z,992.33
2019-01-14T05:50:01.661Z,992.35
2019-01-14T05:51:01.651Z,992.41
2019-01-14T05:52:01.668Z,992.33
2019-01-14T05:53:01.630Z,992.34
2019-01-14T05:54:01.623Z,992.46
2019-01-14T05:55:01.607Z,992.44
2019-01-14T05:56:01.595Z,992.43
2019-01-14T05:57:01.599Z,992.31
2019-01-14T05:58:01.568Z,992.35
2019-01-14T05:59:01.559Z,992.44
2019-01-14T06:00:01.557Z,992.49
2019-01-14T06:01:01.539Z,992.44
2019-01-14T06:02:01.558Z,992.49
2019-01-14T06:03:01.519Z,992.38
2019-01-14T06:04:01.511Z,992.36
2019-01-14T06:05:01.497Z,992.40
2019-01-14T06:06:01.485Z,992.48
2019-01-14T06:07:01.472Z,992.50
2019-01-14T06:08:01.475Z,992.50
2019-01-14T06:09:01.451Z,992.54
2019-01-14T06:10:01.441Z,992.49
2019-01-14T06:11:01.429Z,992.51
2019-01-14T06:12:01.450Z,992.49
2019-01-14T06:13:01.428Z,992.50
2019-01-14T06:14:01.401Z,992.56
2019-01-14T06:15:01.390Z,992.51
2019-01-14T06:16:01.372Z,992.51
2019-01-14T06:17:01.364Z,992.49
2019-01-14T06:18:01.365Z,992.52
2019-01-14T06:19:01.341Z,992.59
2019-01-14T06:20:01.327Z,992.51
2019-01-14T06:21:01.319Z,992.53
2019-01-14T06:22:01.311Z,992.57
2019-01-14T06:23:01.313Z,992.54
2019-01-14T06:24:01.291Z,992.59
2019-01-14T06:25:01.273Z,992.58
2019-01-14T06:26:01.274Z,992.62
2019-01-14T06:27:01.255Z,992.62
2019-01-14T06:28:01.261Z,992.65
2019-01-14T06:29:01.229Z,992.66
2019-01-14T06:30:01.218Z,992.72
2019-01-14T06:31:01.210Z,992.76
2019-01-14T06:32:01.199Z,992.78
2019-01-14T06:33:01.217Z,992.69
2019-01-14T06:34:01.179Z,992.72
2019-01-14T06:35:01.161Z,992.80
2019-01-14T06:36:01.153Z,992.88
2019-01-14T06:37:01.143Z,992.89
2019-01-14T06:38:01.153Z,992.93
2019-01-14T06:39:01.121Z,992.85
2019-01-14T06:40:01.108Z,993.07
2019-01-14T06:41:01.099Z,992.91
2019-01-14T06:42:01.097Z,993.04
2019-01-14T06:43:01.137Z,993.05
2019-01-14T06:44:01.061Z,993.13
2019-01-14T06:45:01.054Z,993.01
2019-01-14T06:46:01.043Z,993.06
2019-01-14T06:47:01.032Z,993.06
2019-01-14T06:48:01.033Z,993.21
2019-01-14T06:49:01.009Z,993.16
2019-01-14T06:50:00.995Z,993.09
2019-01-14T06:51:00.984Z,993.13
2019-01-14T06:52:00.979Z,993.23
2019-01-14T06:53:00.985Z,993.35
2019-01-14T06:54:00.953Z,993.46
2019-01-14T06:55:00.941Z,993.53
2019-01-14T06:56:00.927Z,993.67
2019-01-14T06:57:00.918Z,993.71
2019-01-14T06:58:00.926Z,993.85
2019-01-14T06:59:00.910Z,994.03
2019-01-14T07:00:00.886Z,994.01
2019-01-14T07:01:00.878Z,993.99
2019-01-14T07:02:00.867Z,993.99
2019-01-14T07:03:00.854Z,993.88
2019-01-14T07:04:00.855Z,993.90
2019-01-14T07:05:00.830Z,993.97
2019-01-14T07:06:00.819Z,993.97
2019-01-14T07:07:00.811Z,993.99
2019-01-14T07:08:00.798Z,993.98
2019-01-14T07:09:00.802Z,994.01
2019-01-14T07:10:00.802Z,994.01
2019-01-14T07:11:00.759Z,993.99
2019-01-14T07:12:00.756Z,993.99
2019-01-14T07:13:00.769Z,994.05
2019-01-14T07:14:00.741Z,994.01
2019-01-14T07:15:00.719Z,994.08
2019-01-14T07:16:00.706Z,993.99
2019-01-14T07:17:00.693Z,994.14
2019-01-14T07:18:00.690Z,994.12
2019-01-14T07:19:00.692Z,994.26
2019-01-14T07:20:00.662Z,994.34
2019-01-14T07:21:00.650Z,994.30
2019-01-14T07:22:00.643Z,994.34
2019-01-14T07:23:00.627Z,994.31
2019-01-14T07:24:00.651Z,994.35
2019-01-14T07:25:00.614Z,994.36
2019-01-14T07:26:00.599Z,994.39
2019-01-14T07:27:00.589Z,994.45
2019-01-14T07:28:00.579Z,994.45
2019-01-14T07:29:00.585Z,994.40
2019-01-14T07:30:00.551Z,994.37
2019-01-14T07:31:00.540Z,994.38
2019-01-14T07:32:00.527Z,994.37
2019-01-14T07:33:00.517Z,994.35
2019-01-14T07:34:00.525Z,994.44
2019-01-14T07:35:02.159Z,994.52
2019-01-14T07:36:00.495Z,994.44
2019-01-14T07:37:00.473Z,994.50
2019-01-14T07:38:06.659Z,994.49
2019-01-14T07:39:01.479Z,994.54
2019-01-14T07:40:00.436Z,994.51
2019-01-14T07:41:00.426Z,994.51
2019-01-14T07:42:00.414Z,994.55
2019-01-14T07:43:00.411Z,994.51
2019-01-14T07:44:00.394Z,994.49
2019-01-14T07:45:00.399Z,994.54
2019-01-14T07:46:00.368Z,994.63
2019-01-14T07:47:00.361Z,994.60
2019-01-14T07:48:00.358Z,994.59
2019-01-14T07:49:00.339Z,994.55
2019-01-14T07:50:00.353Z,994.66
2019-01-14T07:51:00.317Z,994.62
2019-01-14T07:52:00.307Z,994.67
2019-01-14T07:53:00.291Z,994.67
2019-01-14T07:54:00.283Z,994.73
2019-01-14T07:55:00.297Z,994.65
2019-01-14T07:56:00.263Z,994.64
2019-01-14T07:57:00.253Z,994.81
2019-01-14T07:58:00.242Z,994.76
2019-01-14T07:59:00.228Z,994.78
2019-01-14T08:00:00.255Z,994.85
2019-01-14T08:01:00.205Z,994.77
2019-01-14T08:02:00.194Z,994.83
2019-01-14T08:03:00.185Z,994.74
2019-01-14T08:04:00.173Z,994.82
2019-01-14T08:05:00.252Z,994.88
2019-01-14T08:06:00.151Z,994.93
2019-01-14T08:07:00.140Z,994.95
2019-01-14T08:08:00.137Z,995.05
2019-01-14T08:09:00.121Z,994.98
2019-01-14T08:10:00.205Z,995.16
2019-01-14T08:11:00.096Z,994.93
2019-01-14T08:12:00.082Z,995.06
2019-01-14T08:13:00.069Z,995.00
2019-01-14T08:14:00.063Z,995.12
2019-01-14T08:15:00.092Z,995.11
2019-01-14T08:16:00.057Z,995.09
2019-01-14T08:17:00.037Z,995.17
2019-01-14T08:18:00.014Z,995.18
2019-01-14T08:19:00.007Z,995.18
2019-01-14T08:19:59.992Z,995.17
2019-01-14T08:20:59.998Z,995.16
2019-01-14T08:21:59.971Z,995.09
2019-01-14T08:22:59.959Z,995.28
2019-01-14T08:23:59.951Z,995.16
2019-01-14T08:24:59.941Z,995.33
2019-01-14T08:25:59.947Z,995.22
2019-01-14T08:26:59.928Z,995.07
2019-01-14T08:27:59.904Z,995.17
2019-01-14T08:28:59.896Z,995.25
2019-01-14T08:29:59.883Z,995.23
2019-01-14T08:30:59.895Z,995.35
2019-01-14T08:31:59.871Z,995.27
2019-01-14T08:32:59.843Z,995.38
2019-01-14T08:33:59.837Z,995.32
2019-01-14T08:34:59.833Z,995.18
2019-01-14T08:35:59.829Z,995.30
2019-01-14T08:37:00.887Z,995.36
2019-01-14T08:37:59.791Z,995.26
2019-01-14T08:38:59.790Z,995.28
2019-01-14T08:39:59.768Z,995.38
2019-01-14T08:40:59.773Z,995.45
2019-01-14T08:41:59.750Z,995.37
2019-01-14T08:42:59.736Z,995.47
2019-01-14T08:43:59.729Z,995.37
2019-01-14T08:44:59.722Z,995.40
2019-01-14T08:45:59.731Z,995.41
2019-01-14T08:46:59.692Z,995.49
2019-01-14T08:47:59.683Z,995.58
2019-01-14T08:48:59.669Z,995.55
2019-01-14T08:49:59.663Z,995.56
2019-01-14T08:50:59.669Z,995.51
2019-01-14T08:51:59.633Z,995.54
2019-01-14T08:52:59.629Z,995.54
2019-01-14T08:53:59.616Z,995.56
2019-01-14T08:54:59.605Z,995.56
2019-01-14T08:55:59.607Z,995.49
2019-01-14T08:56:59.583Z,995.52
2019-01-14T08:57:59.570Z,995.65
2019-01-14T08:58:59.578Z,995.59
2019-01-14T08:59:59.550Z,995.81
2019-01-14T09:00:59.563Z,995.65
2019-01-14T09:01:59.529Z,995.73
2019-01-14T09:02:59.521Z,995.83
2019-01-14T09:03:59.504Z,995.63
2019-01-14T09:04:59.502Z,995.83
2019-01-14T09:05:59.484Z,995.83
2019-01-14T09:06:59.492Z,995.82
2019-01-14T09:07:59.459Z,995.83
2019-01-14T09:08:59.452Z,995.81
2019-01-14T09:09:59.439Z,995.91
2019-01-14T09:10:59.434Z,995.83
2019-01-14T09:11:59.433Z,995.82
2019-01-14T09:12:59.410Z,995.91
2019-01-14T09:13:59.392Z,995.90
2019-01-14T09:14:59.387Z,995.90
2019-01-14T09:15:59.378Z,995.94
2019-01-14T09:16:59.371Z,995.95
2019-01-14T09:18:02.883Z,995.94
2019-01-14T09:18:59.336Z,995.95
2019-01-14T09:19:59.329Z,996.03
2019-01-14T09:20:59.319Z,995.93
2019-01-14T09:21:59.317Z,995.87
2019-01-14T09:22:59.292Z,996.06
2019-01-14T09:23:59.289Z,996.02
2019-01-14T09:24:59.268Z,996.02
2019-01-14T09:25:59.262Z,996.06
2019-01-14T09:26:59.275Z,996.26
2019-01-14T09:27:59.245Z,996.03
2019-01-14T09:28:59.232Z,995.85
2019-01-14T09:29:59.218Z,996.04
2019-01-14T09:30:59.209Z,996.04
2019-01-14T09:31:59.219Z,996.08
2019-01-14T09:32:59.186Z,996.15
2019-01-14T09:33:59.167Z,996.00
2019-01-14T09:34:59.157Z,996.04
2019-01-14T09:35:59.149Z,996.05
2019-01-14T09:36:59.155Z,996.22
2019-01-14T09:37:59.127Z,996.12
2019-01-14T09:38:59.119Z,996.31
2019-01-14T09:39:59.105Z,996.17
2019-01-14T09:40:59.099Z,996.09
2019-01-14T09:41:59.104Z,996.15
2019-01-14T09:42:59.087Z,996.17
2019-01-14T09:43:59.065Z,996.18
2019-01-14T09:44:59.048Z,996.23
2019-01-14T09:45:59.034Z,996.03
2019-01-14T09:46:59.025Z,996.02
2019-01-14T09:47:59.038Z,996.18
2019-01-14T09:48:59.005Z,996.26
2019-01-14T09:49:58.997Z,996.08
2019-01-14T09:50:58.983Z,996.09
2019-01-14T09:51:58.975Z,996.18
2019-01-14T09:52:58.987Z,996.06
2019-01-14T09:53:58.947Z,996.11
2019-01-14T09:54:58.936Z,996.26
2019-01-14T09:55:58.938Z,996.24
2019-01-14T09:56:58.915Z,996.28
2019-01-14T09:57:58.929Z,996.16
2019-01-14T09:58:58.896Z,996.31
2019-01-14T09:59:58.883Z,996.24
2019-01-14T10:00:58.877Z,996.20
2019-01-14T10:01:58.853Z,996.23
2019-01-14T10:02:58.864Z,996.22
2019-01-14T10:03:58.835Z,996.16
2019-01-14T10:04:58.825Z,996.25
2019-01-14T10:05:58.811Z,996.17
2019-01-14T10:06:58.863Z,996.23
2019-01-14T10:07:58.808Z,996.22
2019-01-14T10:08:58.787Z,996.19
2019-01-14T10:09:58.772Z,996.17
2019-01-14T10:10:58.761Z,996.22
2019-01-14T10:11:58.745Z,996.21
2019-01-14T10:12:58.749Z,996.31
2019-01-14T10:13:58.721Z,996.26
2019-01-14T10:14:58.717Z,996.16
2019-01-14T10:15:58.697Z,996.15
2019-01-14T10:16:58.692Z,996.14
2019-01-14T10:17:58.719Z,996.20
2019-01-14T10:18:58.680Z,996.11
2019-01-14T10:19:58.661Z,996.07
2019-01-14T10:20:58.652Z,996.15
2019-01-14T10:21:58.643Z,996.07
2019-01-14T10:22:58.650Z,996.13
2019-01-14T10:23:58.613Z,996.20
2019-01-14T10:24:58.603Z,996.04
2019-01-14T10:25:58.590Z,996.10
2019-01-14T10:26:58.577Z,996.08
2019-01-14T10:27:58.580Z,996.10
2019-01-14T10:28:58.561Z,996.06
2019-01-14T10:29:58.541Z,996.08
2019-01-14T10:30:58.539Z,995.98
2019-01-14T10:31:58.525Z,996.00
2019-01-14T10:32:58.527Z,996.14
2019-01-14T10:33:58.505Z,996.27
2019-01-14T10:34:58.510Z,996.29
2019-01-14T10:35:58.480Z,996.17
2019-01-14T10:36:58.464Z,996.44
2019-01-14T10:37:58.474Z,996.27
2019-01-14T10:38:58.443Z,996.24
2019-01-14T10:39:58.448Z,996.28
2019-01-14T10:40:58.421Z,996.26
2019-01-14T10:41:58.417Z,996.33
2019-01-14T10:42:58.429Z,996.32
2019-01-14T10:43:58.389Z,996.19
2019-01-14T10:44:58.378Z,996.13
2019-01-14T10:45:58.364Z,996.21
2019-01-14T10:46:58.349Z,996.22
2019-01-14T10:47:58.345Z,996.24
2019-01-14T10:48:58.361Z,996.15
2019-01-14T10:49:58.321Z,996.19
2019-01-14T10:50:58.309Z,996.01
2019-01-14T10:51:58.299Z,996.18
2019-01-14T10:52:58.281Z,996.02
2019-01-14T10:53:58.293Z,996.18
2019-01-14T10:54:58.269Z,996.17
2019-01-14T10:55:58.253Z,996.14
2019-01-14T10:56:58.246Z,996.07
2019-01-14T10:57:58.236Z,996.28
2019-01-14T10:58:58.236Z,996.15
2019-01-14T10:59:58.204Z,996.06
2019-01-14T11:00:58.195Z,996.16
2019-01-14T11:01:58.183Z,996.00
2019-01-14T11:02:58.181Z,996.12
2019-01-14T11:03:58.179Z,996.08
2019-01-14T11:04:58.151Z,996.16
2019-01-14T11:05:58.136Z,996.26
2019-01-14T11:06:58.127Z,996.17
2019-01-14T11:07:58.121Z,996.23
2019-01-14T11:09:05.775Z,996.23
2019-01-14T11:09:59.096Z,996.22
2019-01-14T11:10:58.106Z,996.17
2019-01-14T11:11:58.073Z,996.24
2019-01-14T11:12:58.061Z,996.36
2019-01-14T11:13:58.083Z,996.28
2019-01-14T11:15:02.729Z,996.35
2019-01-14T11:15:59.024Z,996.25
2019-01-14T11:16:58.018Z,996.31
2019-01-14T11:17:58.012Z,996.26
2019-01-14T11:18:58.009Z,996.57
2019-01-14T11:19:57.997Z,996.20
2019-01-14T11:20:57.970Z,996.34
2019-01-14T11:21:57.974Z,996.37
2019-01-14T11:22:57.952Z,996.48
2019-01-14T11:23:58.109Z,996.55
2019-01-14T11:24:57.944Z,996.41
2019-01-14T11:25:57.970Z,996.36
2019-01-14T11:26:57.920Z,996.51
2019-01-14T11:27:57.890Z,996.44
2019-01-14T11:28:57.924Z,996.50
2019-01-14T11:29:57.885Z,996.51
2019-01-14T11:30:57.863Z,996.67
2019-01-14T11:31:57.844Z,996.52
2019-01-14T11:32:57.839Z,996.77
2019-01-14T11:33:57.849Z,996.67
2019-01-14T11:34:57.811Z,996.42
2019-01-14T11:35:57.799Z,996.62
2019-01-14T11:36:57.787Z,996.70
2019-01-14T11:37:57.780Z,996.51
2019-01-14T11:39:04.732Z,996.64
2019-01-14T11:40:00.608Z,996.79
2019-01-14T11:40:58.622Z,996.53
2019-01-14T11:41:57.795Z,996.57
2019-01-14T11:42:57.724Z,996.59
2019-01-14T11:43:57.709Z,996.51
2019-01-14T11:44:59.181Z,996.53
2019-01-14T11:45:57.693Z,996.63
2019-01-14T11:46:57.762Z,996.54
2019-01-14T11:47:57.671Z,996.61
2019-01-14T11:48:57.651Z,996.61
2019-01-14T11:49:57.663Z,996.52
2019-01-14T11:50:57.633Z,996.65
2019-01-14T11:51:57.617Z,996.58
2019-01-14T11:52:57.612Z,996.62
2019-01-14T11:53:57.601Z,996.66
2019-01-14T11:54:57.603Z,996.70
2019-01-14T11:55:57.573Z,996.72
2019-01-14T11:56:57.565Z,996.77
2019-01-14T11:57:57.596Z,996.86
2019-01-14T11:58:57.641Z,996.90
2019-01-14T11:59:57.634Z,996.94
2019-01-14T12:00:58.089Z,996.93
2019-01-14T12:01:57.605Z,997.00
2019-01-14T12:02:57.653Z,996.99
2019-01-14T12:03:57.482Z,997.02
2019-01-14T12:04:57.493Z,996.97
2019-01-14T12:05:57.466Z,996.83
2019-01-14T12:06:57.474Z,996.87
2019-01-14T12:07:57.451Z,996.93
2019-01-14T12:08:57.443Z,996.80
2019-01-14T12:09:57.446Z,996.96
2019-01-14T12:10:57.411Z,996.98
2019-01-14T12:11:57.397Z,996.99
2019-01-14T12:12:57.387Z,996.97
2019-01-14T12:13:57.372Z,997.00
2019-01-14T12:14:57.394Z,996.92
2019-01-14T12:15:57.359Z,997.06
2019-01-14T12:16:58.107Z,996.72
2019-01-14T12:17:57.384Z,996.92
2019-01-14T12:18:57.372Z,997.02
2019-01-14T12:19:58.117Z,997.02
2019-01-14T12:20:58.077Z,996.99
2019-01-14T12:21:57.283Z,997.14
2019-01-14T12:22:57.276Z,997.03
2019-01-14T12:23:58.129Z,997.08
2019-01-14T12:24:59.134Z,997.04
2019-01-14T12:25:57.244Z,997.14
2019-01-14T12:26:57.238Z,997.03
2019-01-14T12:27:57.223Z,997.11